首页
METAR-TAF:

METAR-TAF

机场 :

布朗斯维克, 喬治亞, 美国

纬度: 31-15N, 经度: 081-28W, 海拔: 8米

当前天气观测

该预报发布于24分钟前的20:15 UTC
风速10节,风向西
温度 18°C
湿度 30%
气压 1017 hPa
能見度: 16.1公里
天空无云

METAR: KBQK 262015Z AUTO 27010KT 10SM CLR 18/00 A3003 RMK AO2 T01780002

时间: 15:39 (20:39 UTC)


TAF: 丢失

超过4000个机场的气象观测和天气预报(METAR&TAF报告)。

可查询的气象台以黄色和红色小点在地图上表示。

将鼠标移到小点上方,可查看气象台名称。

然后点击查看天气观测和预报。

如需切换地图:点击带黑十字的绿色按钮放大地图;点击带横线的绿色按钮缩小地图;或者点击绿色箭头查看邻近地区的地图。


METAR-TAF: